sensor_id;sensor_type;location;lat;lon;timestamp;P1;durP1;ratioP1;P2;durP2;ratioP2
8540;SDS011;4308;51.294;6.590;2023-06-14T00:00:37;8.93;;;6.07;;
8540;SDS011;4308;51.294;6.590;2023-06-14T00:03:04;9.73;;;5.83;;
8540;SDS011;4308;51.294;6.590;2023-06-14T00:05:32;7.70;;;6.03;;
8540;SDS011;4308;51.294;6.590;2023-06-14T00:08:00;10.03;;;5.93;;
8540;SDS011;4308;51.294;6.590;2023-06-14T00:10:27;7.30;;;5.83;;
8540;SDS011;4308;51.294;6.590;2023-06-14T00:12:55;10.37;;;5.80;;
8540;SDS011;4308;51.294;6.590;2023-06-14T00:15:22;7.90;;;5.97;;
8540;SDS011;4308;51.294;6.590;2023-06-14T00:17:50;6.57;;;5.73;;
8540;SDS011;4308;51.294;6.590;2023-06-14T00:20:18;7.10;;;5.80;;
8540;SDS011;4308;51.294;6.590;2023-06-14T00:22:46;10.80;;;6.30;;
8540;SDS011;4308;51.294;6.590;2023-06-14T00:25:13;9.50;;;6.60;;
8540;SDS011;4308;51.294;6.590;2023-06-14T00:27:55;6.83;;;5.90;;
8540;SDS011;4308;51.294;6.590;2023-06-14T00:30:23;8.80;;;6.50;;
8540;SDS011;4308;51.294;6.590;2023-06-14T00:32:50;9.97;;;6.60;;
8540;SDS011;4308;51.294;6.590;2023-06-14T00:35:18;8.27;;;6.30;;
8540;SDS011;4308;51.294;6.590;2023-06-14T00:37:46;7.43;;;5.63;;
8540;SDS011;4308;51.294;6.590;2023-06-14T00:40:14;7.27;;;6.33;;
8540;SDS011;4308;51.294;6.590;2023-06-14T00:42:42;9.03;;;6.27;;
8540;SDS011;4308;51.294;6.590;2023-06-14T00:45:09;9.50;;;6.57;;
8540;SDS011;4308;51.294;6.590;2023-06-14T00:47:37;7.40;;;6.47;;
8540;SDS011;4308;51.294;6.590;2023-06-14T00:50:09;10.90;;;6.93;;
8540;SDS011;4308;51.294;6.590;2023-06-14T00:52:41;9.07;;;6.63;;
8540;SDS011;4308;51.294;6.590;2023-06-14T00:55:08;11.13;;;6.67;;
8540;SDS011;4308;51.294;6.590;2023-06-14T00:57:36;8.87;;;6.37;;
8540;SDS011;4308;51.294;6.590;2023-06-14T01:00:04;7.43;;;6.27;;
8540;SDS011;4308;51.294;6.590;2023-06-14T01:02:32;10.40;;;6.70;;
8540;SDS011;4308;51.294;6.590;2023-06-14T01:05:00;11.73;;;6.63;;
8540;SDS011;4308;51.294;6.590;2023-06-14T01:13:23;9.90;;;6.73;;
8540;SDS011;4308;51.294;6.590;2023-06-14T01:15:55;10.87;;;6.80;;
8540;SDS011;4308;51.294;6.590;2023-06-14T01:18:23;10.30;;;6.77;;
8540;SDS011;4308;51.294;6.590;2023-06-14T01:20:50;11.63;;;6.57;;
8540;SDS011;4308;51.294;6.590;2023-06-14T01:23:19;8.53;;;6.90;;
8540;SDS011;4308;51.294;6.590;2023-06-14T01:25:47;9.40;;;7.33;;
8540;SDS011;4308;51.294;6.590;2023-06-14T01:28:15;9.87;;;7.67;;
8540;SDS011;4308;51.294;6.590;2023-06-14T01:30:47;11.73;;;7.10;;
8540;SDS011;4308;51.294;6.590;2023-06-14T01:33:17;10.20;;;7.07;;
8540;SDS011;4308;51.294;6.590;2023-06-14T01:35:50;10.00;;;7.50;;
8540;SDS011;4308;51.294;6.590;2023-06-14T01:38:19;9.37;;;7.00;;
8540;SDS011;4308;51.294;6.590;2023-06-14T01:40:47;11.43;;;7.20;;
8540;SDS011;4308;51.294;6.590;2023-06-14T01:43:16;12.70;;;6.90;;
8540;SDS011;4308;51.294;6.590;2023-06-14T01:45:44;11.47;;;6.37;;
8540;SDS011;4308;51.294;6.590;2023-06-14T01:48:12;11.47;;;6.90;;
8540;SDS011;4308;51.294;6.590;2023-06-14T01:50:40;9.90;;;6.80;;
8540;SDS011;4308;51.294;6.590;2023-06-14T01:53:09;10.77;;;6.93;;
8540;SDS011;4308;51.294;6.590;2023-06-14T01:55:36;9.03;;;6.63;;
8540;SDS011;4308;51.294;6.590;2023-06-14T01:58:04;11.07;;;6.30;;
8540;SDS011;4308;51.294;6.590;2023-06-14T02:00:32;8.93;;;5.77;;
8540;SDS011;4308;51.294;6.590;2023-06-14T02:02:59;8.23;;;5.70;;
8540;SDS011;4308;51.294;6.590;2023-06-14T02:05:27;8.37;;;5.80;;
8540;SDS011;4308;51.294;6.590;2023-06-14T02:07:55;7.83;;;6.23;;
8540;SDS011;4308;51.294;6.590;2023-06-14T02:10:22;9.43;;;6.53;;
8540;SDS011;4308;51.294;6.590;2023-06-14T02:12:50;8.00;;;6.43;;
8540;SDS011;4308;51.294;6.590;2023-06-14T02:15:18;10.40;;;6.23;;
8540;SDS011;4308;51.294;6.590;2023-06-14T02:17:46;9.53;;;6.37;;
8540;SDS011;4308;51.294;6.590;2023-06-14T02:20:13;6.97;;;5.97;;
8540;SDS011;4308;51.294;6.590;2023-06-14T02:22:41;9.53;;;6.37;;
8540;SDS011;4308;51.294;6.590;2023-06-14T02:25:09;11.20;;;6.40;;
8540;SDS011;4308;51.294;6.590;2023-06-14T02:27:37;7.40;;;6.37;;
8540;SDS011;4308;51.294;6.590;2023-06-14T02:30:04;9.63;;;6.50;;
8540;SDS011;4308;51.294;6.590;2023-06-14T02:32:32;9.23;;;6.43;;
8540;SDS011;4308;51.294;6.590;2023-06-14T02:35:00;10.27;;;6.43;;
8540;SDS011;4308;51.294;6.590;2023-06-14T02:37:27;8.77;;;6.10;;
8540;SDS011;4308;51.294;6.590;2023-06-14T02:39:55;8.67;;;5.77;;
8540;SDS011;4308;51.294;6.590;2023-06-14T02:42:23;8.40;;;4.87;;
8540;SDS011;4308;51.294;6.590;2023-06-14T02:44:51;10.30;;;6.00;;
8540;SDS011;4308;51.294;6.590;2023-06-14T02:47:18;8.50;;;6.27;;
8540;SDS011;4308;51.294;6.590;2023-06-14T02:49:46;8.53;;;5.90;;
8540;SDS011;4308;51.294;6.590;2023-06-14T02:52:14;8.73;;;5.83;;
8540;SDS011;4308;51.294;6.590;2023-06-14T02:54:44;9.27;;;5.93;;
8540;SDS011;4308;51.294;6.590;2023-06-14T02:57:12;11.10;;;6.17;;
8540;SDS011;4308;51.294;6.590;2023-06-14T02:59:39;6.63;;;5.80;;
8540;SDS011;4308;51.294;6.590;2023-06-14T03:02:07;8.20;;;6.27;;
8540;SDS011;4308;51.294;6.590;2023-06-14T03:04:34;9.20;;;6.10;;
8540;SDS011;4308;51.294;6.590;2023-06-14T03:07:02;9.07;;;5.40;;
8540;SDS011;4308;51.294;6.590;2023-06-14T03:09:30;7.20;;;5.30;;
8540;SDS011;4308;51.294;6.590;2023-06-14T03:11:58;6.27;;;5.23;;
8540;SDS011;4308;51.294;6.590;2023-06-14T03:14:25;7.27;;;5.87;;
8540;SDS011;4308;51.294;6.590;2023-06-14T03:16:53;7.57;;;5.60;;
8540;SDS011;4308;51.294;6.590;2023-06-14T03:19:20;7.93;;;5.70;;
8540;SDS011;4308;51.294;6.590;2023-06-14T03:21:48;7.23;;;5.50;;
8540;SDS011;4308;51.294;6.590;2023-06-14T03:24:16;7.23;;;6.10;;
8540;SDS011;4308;51.294;6.590;2023-06-14T03:26:43;7.63;;;5.50;;
8540;SDS011;4308;51.294;6.590;2023-06-14T03:29:11;7.47;;;4.63;;
8540;SDS011;4308;51.294;6.590;2023-06-14T03:31:42;8.47;;;5.43;;
8540;SDS011;4308;51.294;6.590;2023-06-14T03:34:23;7.43;;;5.30;;
8540;SDS011;4308;51.294;6.590;2023-06-14T03:36:50;5.67;;;4.67;;
8540;SDS011;4308;51.294;6.590;2023-06-14T03:39:18;7.20;;;5.30;;
8540;SDS011;4308;51.294;6.590;2023-06-14T03:41:46;7.63;;;5.13;;
8540;SDS011;4308;51.294;6.590;2023-06-14T03:44:17;10.57;;;5.40;;
8540;SDS011;4308;51.294;6.590;2023-06-14T03:46:45;8.03;;;5.60;;
8540;SDS011;4308;51.294;6.590;2023-06-14T03:49:13;7.63;;;5.07;;
8540;SDS011;4308;51.294;6.590;2023-06-14T03:51:41;6.63;;;5.17;;
8540;SDS011;4308;51.294;6.590;2023-06-14T03:54:08;7.60;;;5.67;;
8540;SDS011;4308;51.294;6.590;2023-06-14T03:56:56;6.23;;;5.07;;
8540;SDS011;4308;51.294;6.590;2023-06-14T03:59:23;7.23;;;5.03;;
8540;SDS011;4308;51.294;6.590;2023-06-14T04:01:51;7.50;;;5.70;;
8540;SDS011;4308;51.294;6.590;2023-06-14T04:04:19;7.80;;;5.37;;
8540;SDS011;4308;51.294;6.590;2023-06-14T04:06:46;8.57;;;5.40;;
8540;SDS011;4308;51.294;6.590;2023-06-14T04:09:14;6.17;;;5.47;;
8540;SDS011;4308;51.294;6.590;2023-06-14T04:11:41;8.70;;;5.30;;
8540;SDS011;4308;51.294;6.590;2023-06-14T04:14:09;8.47;;;5.30;;
8540;SDS011;4308;51.294;6.590;2023-06-14T04:16:36;8.33;;;5.83;;
8540;SDS011;4308;51.294;6.590;2023-06-14T04:19:04;6.13;;;4.80;;
8540;SDS011;4308;51.294;6.590;2023-06-14T04:21:32;6.60;;;4.90;;
8540;SDS011;4308;51.294;6.590;2023-06-14T04:23:59;7.83;;;5.70;;
8540;SDS011;4308;51.294;6.590;2023-06-14T04:26:27;9.20;;;5.47;;
8540;SDS011;4308;51.294;6.590;2023-06-14T04:28:55;6.37;;;5.07;;
8540;SDS011;4308;51.294;6.590;2023-06-14T04:31:24;6.67;;;5.20;;
8540;SDS011;4308;51.294;6.590;2023-06-14T04:34:22;6.80;;;5.43;;
8540;SDS011;4308;51.294;6.590;2023-06-14T04:36:49;12.60;;;5.30;;
8540;SDS011;4308;51.294;6.590;2023-06-14T04:39:17;8.47;;;5.00;;
8540;SDS011;4308;51.294;6.590;2023-06-14T04:41:45;6.90;;;5.23;;
8540;SDS011;4308;51.294;6.590;2023-06-14T04:44:13;7.13;;;5.30;;
8540;SDS011;4308;51.294;6.590;2023-06-14T04:46:40;8.67;;;5.97;;
8540;SDS011;4308;51.294;6.590;2023-06-14T04:49:08;7.83;;;5.77;;
8540;SDS011;4308;51.294;6.590;2023-06-14T04:51:36;10.47;;;5.97;;
8540;SDS011;4308;51.294;6.590;2023-06-14T04:54:03;9.77;;;5.50;;
8540;SDS011;4308;51.294;6.590;2023-06-14T04:56:31;12.10;;;6.10;;
8540;SDS011;4308;51.294;6.590;2023-06-14T04:58:58;8.20;;;5.27;;
8540;SDS011;4308;51.294;6.590;2023-06-14T05:01:26;11.47;;;5.30;;
8540;SDS011;4308;51.294;6.590;2023-06-14T05:03:54;8.53;;;5.80;;
8540;SDS011;4308;51.294;6.590;2023-06-14T05:06:21;8.43;;;4.87;;
8540;SDS011;4308;51.294;6.590;2023-06-14T05:08:49;7.20;;;5.17;;
8540;SDS011;4308;51.294;6.590;2023-06-14T05:11:17;5.93;;;4.97;;
8540;SDS011;4308;51.294;6.590;2023-06-14T05:13:44;7.70;;;5.10;;
8540;SDS011;4308;51.294;6.590;2023-06-14T05:16:12;8.87;;;5.10;;
8540;SDS011;4308;51.294;6.590;2023-06-14T05:18:40;9.53;;;4.93;;
8540;SDS011;4308;51.294;6.590;2023-06-14T05:21:07;7.60;;;4.97;;
8540;SDS011;4308;51.294;6.590;2023-06-14T05:23:35;8.80;;;4.70;;
8540;SDS011;4308;51.294;6.590;2023-06-14T05:26:03;8.87;;;4.80;;
8540;SDS011;4308;51.294;6.590;2023-06-14T05:28:30;5.40;;;4.27;;
8540;SDS011;4308;51.294;6.590;2023-06-14T05:30:59;8.10;;;5.37;;
8540;SDS011;4308;51.294;6.590;2023-06-14T05:33:27;8.73;;;5.00;;
8540;SDS011;4308;51.294;6.590;2023-06-14T05:35:55;11.77;;;6.70;;
8540;SDS011;4308;51.294;6.590;2023-06-14T05:38:22;7.90;;;5.10;;
8540;SDS011;4308;51.294;6.590;2023-06-14T05:40:50;9.07;;;5.30;;
8540;SDS011;4308;51.294;6.590;2023-06-14T05:43:17;8.57;;;4.97;;
8540;SDS011;4308;51.294;6.590;2023-06-14T05:45:45;5.60;;;5.00;;
8540;SDS011;4308;51.294;6.590;2023-06-14T05:48:13;7.93;;;4.80;;
8540;SDS011;4308;51.294;6.590;2023-06-14T05:50:40;5.30;;;4.80;;
8540;SDS011;4308;51.294;6.590;2023-06-14T05:53:08;9.70;;;5.17;;
8540;SDS011;4308;51.294;6.590;2023-06-14T05:55:35;7.07;;;4.77;;
8540;SDS011;4308;51.294;6.590;2023-06-14T05:58:05;8.43;;;4.67;;
8540;SDS011;4308;51.294;6.590;2023-06-14T06:00:32;5.60;;;4.40;;
8540;SDS011;4308;51.294;6.590;2023-06-14T06:03:00;7.53;;;4.93;;
8540;SDS011;4308;51.294;6.590;2023-06-14T06:05:28;6.10;;;4.50;;
8540;SDS011;4308;51.294;6.590;2023-06-14T06:07:55;6.17;;;4.80;;
8540;SDS011;4308;51.294;6.590;2023-06-14T06:10:23;8.70;;;5.10;;
8540;SDS011;4308;51.294;6.590;2023-06-14T06:12:50;7.33;;;4.40;;
8540;SDS011;4308;51.294;6.590;2023-06-14T06:15:18;7.40;;;4.20;;
8540;SDS011;4308;51.294;6.590;2023-06-14T06:17:46;4.77;;;4.10;;
8540;SDS011;4308;51.294;6.590;2023-06-14T06:20:23;7.03;;;3.93;;
8540;SDS011;4308;51.294;6.590;2023-06-14T06:22:51;6.93;;;4.63;;
8540;SDS011;4308;51.294;6.590;2023-06-14T06:25:18;6.90;;;4.40;;
8540;SDS011;4308;51.294;6.590;2023-06-14T06:27:46;4.90;;;4.33;;
8540;SDS011;4308;51.294;6.590;2023-06-14T06:30:13;6.40;;;4.43;;
8540;SDS011;4308;51.294;6.590;2023-06-14T06:32:41;5.70;;;4.13;;
8540;SDS011;4308;51.294;6.590;2023-06-14T06:35:09;4.33;;;3.47;;
8540;SDS011;4308;51.294;6.590;2023-06-14T06:37:36;8.30;;;4.33;;
8540;SDS011;4308;51.294;6.590;2023-06-14T06:40:04;8.07;;;3.87;;
8540;SDS011;4308;51.294;6.590;2023-06-14T06:42:32;6.33;;;3.93;;
8540;SDS011;4308;51.294;6.590;2023-06-14T06:45:00;6.70;;;3.80;;
8540;SDS011;4308;51.294;6.590;2023-06-14T06:47:28;5.03;;;3.67;;
8540;SDS011;4308;51.294;6.590;2023-06-14T06:49:56;6.13;;;3.67;;
8540;SDS011;4308;51.294;6.590;2023-06-14T06:52:23;5.03;;;3.77;;
8540;SDS011;4308;51.294;6.590;2023-06-14T06:54:54;6.77;;;3.97;;
8540;SDS011;4308;51.294;6.590;2023-06-14T06:57:21;5.63;;;3.70;;
8540;SDS011;4308;51.294;6.590;2023-06-14T06:59:49;4.77;;;3.50;;
8540;SDS011;4308;51.294;6.590;2023-06-14T07:02:17;6.87;;;3.13;;
8540;SDS011;4308;51.294;6.590;2023-06-14T07:04:45;7.00;;;3.20;;
8540;SDS011;4308;51.294;6.590;2023-06-14T07:07:13;5.97;;;3.23;;
8540;SDS011;4308;51.294;6.590;2023-06-14T07:09:40;4.73;;;3.53;;
8540;SDS011;4308;51.294;6.590;2023-06-14T07:12:08;6.63;;;3.77;;
8540;SDS011;4308;51.294;6.590;2023-06-14T07:14:36;6.57;;;3.13;;
8540;SDS011;4308;51.294;6.590;2023-06-14T07:17:03;4.80;;;2.97;;
8540;SDS011;4308;51.294;6.590;2023-06-14T07:19:31;2.90;;;2.50;;
8540;SDS011;4308;51.294;6.590;2023-06-14T07:21:59;3.10;;;2.80;;
8540;SDS011;4308;51.294;6.590;2023-06-14T07:24:26;2.63;;;2.37;;
8540;SDS011;4308;51.294;6.590;2023-06-14T07:26:54;6.57;;;2.60;;
8540;SDS011;4308;51.294;6.590;2023-06-14T07:29:22;4.23;;;2.63;;
8540;SDS011;4308;51.294;6.590;2023-06-14T07:31:49;3.87;;;2.27;;
8540;SDS011;4308;51.294;6.590;2023-06-14T07:34:17;5.60;;;2.30;;
8540;SDS011;4308;51.294;6.590;2023-06-14T07:36:45;12.87;;;2.60;;
8540;SDS011;4308;51.294;6.590;2023-06-14T07:39:13;4.43;;;2.90;;
8540;SDS011;4308;51.294;6.590;2023-06-14T07:41:40;4.07;;;2.37;;
8540;SDS011;4308;51.294;6.590;2023-06-14T07:44:08;6.47;;;2.67;;
8540;SDS011;4308;51.294;6.590;2023-06-14T07:46:35;3.90;;;2.37;;
8540;SDS011;4308;51.294;6.590;2023-06-14T07:49:03;5.47;;;2.50;;
8540;SDS011;4308;51.294;6.590;2023-06-14T07:51:32;5.27;;;2.00;;
8540;SDS011;4308;51.294;6.590;2023-06-14T07:53:59;3.00;;;1.90;;
8540;SDS011;4308;51.294;6.590;2023-06-14T07:56:27;3.77;;;1.80;;
8540;SDS011;4308;51.294;6.590;2023-06-14T07:58:54;5.77;;;2.40;;
8540;SDS011;4308;51.294;6.590;2023-06-14T08:01:22;2.53;;;1.80;;
8540;SDS011;4308;51.294;6.590;2023-06-14T08:03:50;5.40;;;2.20;;
8540;SDS011;4308;51.294;6.590;2023-06-14T08:06:18;2.70;;;2.13;;
8540;SDS011;4308;51.294;6.590;2023-06-14T08:08:45;2.77;;;1.93;;
8540;SDS011;4308;51.294;6.590;2023-06-14T08:11:13;3.53;;;2.17;;
8540;SDS011;4308;51.294;6.590;2023-06-14T08:13:40;3.70;;;1.50;;
8540;SDS011;4308;51.294;6.590;2023-06-14T08:16:08;4.90;;;2.30;;
8540;SDS011;4308;51.294;6.590;2023-06-14T08:18:36;2.77;;;2.33;;
8540;SDS011;4308;51.294;6.590;2023-06-14T08:21:04;2.50;;;1.80;;
8540;SDS011;4308;51.294;6.590;2023-06-14T08:23:31;3.10;;;2.07;;
8540;SDS011;4308;51.294;6.590;2023-06-14T08:25:59;1.90;;;1.80;;
8540;SDS011;4308;51.294;6.590;2023-06-14T08:28:26;2.97;;;1.60;;
8540;SDS011;4308;51.294;6.590;2023-06-14T08:30:54;3.33;;;1.93;;
8540;SDS011;4308;51.294;6.590;2023-06-14T08:33:22;2.83;;;2.03;;
8540;SDS011;4308;51.294;6.590;2023-06-14T08:35:49;3.03;;;1.53;;
8540;SDS011;4308;51.294;6.590;2023-06-14T08:38:17;2.37;;;1.60;;
8540;SDS011;4308;51.294;6.590;2023-06-14T08:40:45;3.00;;;1.80;;
8540;SDS011;4308;51.294;6.590;2023-06-14T08:43:15;2.70;;;1.93;;
8540;SDS011;4308;51.294;6.590;2023-06-14T08:45:42;3.30;;;2.07;;
8540;SDS011;4308;51.294;6.590;2023-06-14T08:48:10;2.07;;;1.60;;
8540;SDS011;4308;51.294;6.590;2023-06-14T08:50:38;5.40;;;2.17;;
8540;SDS011;4308;51.294;6.590;2023-06-14T08:53:07;3.57;;;2.00;;
8540;SDS011;4308;51.294;6.590;2023-06-14T08:55:35;2.30;;;2.10;;
8540;SDS011;4308;51.294;6.590;2023-06-14T08:58:05;2.83;;;1.93;;
8540;SDS011;4308;51.294;6.590;2023-06-14T09:00:33;3.67;;;2.00;;
8540;SDS011;4308;51.294;6.590;2023-06-14T09:03:01;4.93;;;2.07;;
8540;SDS011;4308;51.294;6.590;2023-06-14T09:05:28;4.17;;;2.37;;
8540;SDS011;4308;51.294;6.590;2023-06-14T09:07:56;4.53;;;2.07;;
8540;SDS011;4308;51.294;6.590;2023-06-14T09:10:24;3.97;;;1.77;;
8540;SDS011;4308;51.294;6.590;2023-06-14T09:12:52;3.27;;;1.93;;
8540;SDS011;4308;51.294;6.590;2023-06-14T09:15:20;2.67;;;1.63;;
8540;SDS011;4308;51.294;6.590;2023-06-14T09:17:48;3.90;;;1.90;;
8540;SDS011;4308;51.294;6.590;2023-06-14T09:20:16;2.43;;;1.63;;
8540;SDS011;4308;51.294;6.590;2023-06-14T09:22:44;3.53;;;2.23;;
8540;SDS011;4308;51.294;6.590;2023-06-14T09:25:12;4.53;;;1.80;;
8540;SDS011;4308;51.294;6.590;2023-06-14T09:27:59;2.03;;;1.30;;
8540;SDS011;4308;51.294;6.590;2023-06-14T09:30:26;2.37;;;1.90;;
8540;SDS011;4308;51.294;6.590;2023-06-14T09:32:54;2.40;;;1.60;;
8540;SDS011;4308;51.294;6.590;2023-06-14T09:35:23;2.90;;;1.80;;
8540;SDS011;4308;51.294;6.590;2023-06-14T09:37:51;2.23;;;1.63;;
8540;SDS011;4308;51.294;6.590;2023-06-14T09:40:22;3.33;;;2.27;;
8540;SDS011;4308;51.294;6.590;2023-06-14T09:42:49;6.37;;;2.20;;
8540;SDS011;4308;51.294;6.590;2023-06-14T09:45:17;4.13;;;2.17;;
8540;SDS011;4308;51.294;6.590;2023-06-14T09:47:45;6.67;;;2.60;;
8540;SDS011;4308;51.294;6.590;2023-06-14T09:50:31;3.40;;;1.73;;
8540;SDS011;4308;51.294;6.590;2023-06-14T09:53:02;3.10;;;2.23;;
8540;SDS011;4308;51.294;6.590;2023-06-14T09:55:30;3.53;;;2.00;;
8540;SDS011;4308;51.294;6.590;2023-06-14T09:58:03;4.93;;;2.33;;
8540;SDS011;4308;51.294;6.590;2023-06-14T10:00:32;2.17;;;2.00;;
8540;SDS011;4308;51.294;6.590;2023-06-14T10:03:21;3.47;;;2.50;;
8540;SDS011;4308;51.294;6.590;2023-06-14T10:05:47;5.77;;;2.77;;
8540;SDS011;4308;51.294;6.590;2023-06-14T10:08:17;6.90;;;2.53;;
8540;SDS011;4308;51.294;6.590;2023-06-14T10:10:45;4.13;;;2.50;;
8540;SDS011;4308;51.294;6.590;2023-06-14T10:13:13;2.73;;;2.53;;
8540;SDS011;4308;51.294;6.590;2023-06-14T10:15:52;5.17;;;2.63;;
8540;SDS011;4308;51.294;6.590;2023-06-14T10:21:03;3.90;;;2.50;;
8540;SDS011;4308;51.294;6.590;2023-06-14T10:23:32;4.30;;;2.50;;
8540;SDS011;4308;51.294;6.590;2023-06-14T10:26:00;4.67;;;1.80;;
8540;SDS011;4308;51.294;6.590;2023-06-14T10:28:28;5.83;;;2.27;;
8540;SDS011;4308;51.294;6.590;2023-06-14T10:33:57;3.93;;;1.63;;
8540;SDS011;4308;51.294;6.590;2023-06-14T10:36:27;2.43;;;2.20;;
8540;SDS011;4308;51.294;6.590;2023-06-14T10:38:59;5.73;;;2.00;;
8540;SDS011;4308;51.294;6.590;2023-06-14T10:41:27;3.23;;;1.90;;
8540;SDS011;4308;51.294;6.590;2023-06-14T10:46:38;5.53;;;1.50;;
8540;SDS011;4308;51.294;6.590;2023-06-14T10:49:05;4.90;;;2.07;;
8540;SDS011;4308;51.294;6.590;2023-06-14T10:51:40;3.40;;;1.70;;
8540;SDS011;4308;51.294;6.590;2023-06-14T10:54:08;2.03;;;1.67;;
8540;SDS011;4308;51.294;6.590;2023-06-14T10:56:45;1.40;;;1.30;;
8540;SDS011;4308;51.294;6.590;2023-06-14T10:59:13;1.57;;;1.30;;
8540;SDS011;4308;51.294;6.590;2023-06-14T11:01:47;2.13;;;1.50;;
8540;SDS011;4308;51.294;6.590;2023-06-14T11:04:20;2.13;;;1.30;;
8540;SDS011;4308;51.294;6.590;2023-06-14T11:06:49;1.93;;;1.50;;
8540;SDS011;4308;51.294;6.590;2023-06-14T11:09:31;2.27;;;1.63;;
8540;SDS011;4308;51.294;6.590;2023-06-14T11:12:05;3.30;;;1.70;;
8540;SDS011;4308;51.294;6.590;2023-06-14T11:14:34;4.90;;;1.73;;
8540;SDS011;4308;51.294;6.590;2023-06-14T11:17:02;3.23;;;1.67;;
8540;SDS011;4308;51.294;6.590;2023-06-14T11:19:30;2.00;;;1.63;;
8540;SDS011;4308;51.294;6.590;2023-06-14T11:21:58;5.17;;;1.70;;
8540;SDS011;4308;51.294;6.590;2023-06-14T11:24:26;3.00;;;1.60;;
8540;SDS011;4308;51.294;6.590;2023-06-14T11:26:55;2.57;;;1.67;;
8540;SDS011;4308;51.294;6.590;2023-06-14T11:29:22;5.13;;;1.73;;
8540;SDS011;4308;51.294;6.590;2023-06-14T11:31:50;1.87;;;1.50;;
8540;SDS011;4308;51.294;6.590;2023-06-14T11:34:18;1.70;;;1.40;;
8540;SDS011;4308;51.294;6.590;2023-06-14T11:36:45;3.90;;;1.43;;
8540;SDS011;4308;51.294;6.590;2023-06-14T11:39:13;2.97;;;1.47;;
8540;SDS011;4308;51.294;6.590;2023-06-14T11:41:42;2.93;;;1.60;;
8540;SDS011;4308;51.294;6.590;2023-06-14T11:44:10;1.50;;;1.40;;
8540;SDS011;4308;51.294;6.590;2023-06-14T11:46:38;3.40;;;1.53;;
8540;SDS011;4308;51.294;6.590;2023-06-14T11:49:06;1.93;;;1.40;;
8540;SDS011;4308;51.294;6.590;2023-06-14T11:51:35;2.13;;;1.70;;
8540;SDS011;4308;51.294;6.590;2023-06-14T11:54:02;3.67;;;1.60;;
8540;SDS011;4308;51.294;6.590;2023-06-14T11:56:30;1.50;;;1.40;;
8540;SDS011;4308;51.294;6.590;2023-06-14T11:58:59;1.70;;;1.60;;
8540;SDS011;4308;51.294;6.590;2023-06-14T12:01:27;1.57;;;1.33;;
8540;SDS011;4308;51.294;6.590;2023-06-14T12:03:54;1.70;;;1.60;;
8540;SDS011;4308;51.294;6.590;2023-06-14T12:06:26;2.13;;;1.70;;
8540;SDS011;4308;51.294;6.590;2023-06-14T12:08:55;2.50;;;1.60;;
8540;SDS011;4308;51.294;6.590;2023-06-14T12:11:22;1.97;;;1.70;;
8540;SDS011;4308;51.294;6.590;2023-06-14T12:13:50;2.53;;;1.50;;
8540;SDS011;4308;51.294;6.590;2023-06-14T12:16:18;2.70;;;1.80;;
8540;SDS011;4308;51.294;6.590;2023-06-14T12:18:45;3.70;;;1.60;;
8540;SDS011;4308;51.294;6.590;2023-06-14T12:21:13;3.13;;;1.60;;
8540;SDS011;4308;51.294;6.590;2023-06-14T12:23:47;3.33;;;1.60;;
8540;SDS011;4308;51.294;6.590;2023-06-14T12:26:15;2.03;;;1.70;;
8540;SDS011;4308;51.294;6.590;2023-06-14T12:28:47;1.37;;;1.27;;
8540;SDS011;4308;51.294;6.590;2023-06-14T12:31:15;6.00;;;1.90;;
8540;SDS011;4308;51.294;6.590;2023-06-14T12:33:43;1.83;;;1.40;;
8540;SDS011;4308;51.294;6.590;2023-06-14T12:36:11;1.90;;;1.67;;
8540;SDS011;4308;51.294;6.590;2023-06-14T12:38:39;3.03;;;1.37;;
8540;SDS011;4308;51.294;6.590;2023-06-14T12:41:12;4.33;;;1.97;;
8540;SDS011;4308;51.294;6.590;2023-06-14T12:43:40;3.17;;;1.83;;
8540;SDS011;4308;51.294;6.590;2023-06-14T12:46:08;2.73;;;1.67;;
8540;SDS011;4308;51.294;6.590;2023-06-14T12:48:35;2.00;;;1.53;;
8540;SDS011;4308;51.294;6.590;2023-06-14T12:51:03;2.27;;;1.60;;
8540;SDS011;4308;51.294;6.590;2023-06-14T12:53:31;4.83;;;1.60;;
8540;SDS011;4308;51.294;6.590;2023-06-14T12:55:58;3.53;;;1.50;;
8540;SDS011;4308;51.294;6.590;2023-06-14T12:58:26;2.93;;;1.83;;
8540;SDS011;4308;51.294;6.590;2023-06-14T13:00:53;2.67;;;1.60;;
8540;SDS011;4308;51.294;6.590;2023-06-14T13:03:21;2.23;;;1.70;;
8540;SDS011;4308;51.294;6.590;2023-06-14T13:05:49;3.20;;;1.90;;
8540;SDS011;4308;51.294;6.590;2023-06-14T13:08:16;5.97;;;1.80;;
8540;SDS011;4308;51.294;6.590;2023-06-14T13:10:44;2.10;;;1.43;;
8540;SDS011;4308;51.294;6.590;2023-06-14T13:13:12;3.90;;;1.60;;
8540;SDS011;4308;51.294;6.590;2023-06-14T13:15:39;3.60;;;1.30;;
8540;SDS011;4308;51.294;6.590;2023-06-14T13:18:07;2.73;;;1.60;;
8540;SDS011;4308;51.294;6.590;2023-06-14T13:20:35;3.67;;;1.53;;
8540;SDS011;4308;51.294;6.590;2023-06-14T13:23:02;3.13;;;1.53;;
8540;SDS011;4308;51.294;6.590;2023-06-14T13:25:30;3.07;;;1.90;;
8540;SDS011;4308;51.294;6.590;2023-06-14T13:27:57;4.20;;;1.70;;
8540;SDS011;4308;51.294;6.590;2023-06-14T13:30:25;2.30;;;1.80;;
8540;SDS011;4308;51.294;6.590;2023-06-14T13:32:53;4.57;;;1.90;;
8540;SDS011;4308;51.294;6.590;2023-06-14T13:35:20;2.90;;;1.67;;
8540;SDS011;4308;51.294;6.590;2023-06-14T13:37:48;2.23;;;1.67;;
8540;SDS011;4308;51.294;6.590;2023-06-14T13:40:16;2.87;;;1.67;;
8540;SDS011;4308;51.294;6.590;2023-06-14T13:42:44;2.47;;;1.40;;
8540;SDS011;4308;51.294;6.590;2023-06-14T13:45:11;2.00;;;1.50;;
8540;SDS011;4308;51.294;6.590;2023-06-14T13:47:39;1.80;;;1.70;;
8540;SDS011;4308;51.294;6.590;2023-06-14T13:50:07;2.70;;;1.37;;
8540;SDS011;4308;51.294;6.590;2023-06-14T13:52:35;6.27;;;1.93;;
8540;SDS011;4308;51.294;6.590;2023-06-14T13:55:02;4.77;;;1.93;;
8540;SDS011;4308;51.294;6.590;2023-06-14T13:57:30;2.30;;;1.70;;
8540;SDS011;4308;51.294;6.590;2023-06-14T13:59:58;2.07;;;1.87;;
8540;SDS011;4308;51.294;6.590;2023-06-14T14:02:25;3.63;;;2.00;;
8540;SDS011;4308;51.294;6.590;2023-06-14T14:04:53;3.73;;;2.07;;
8540;SDS011;4308;51.294;6.590;2023-06-14T14:07:21;3.47;;;1.90;;
8540;SDS011;4308;51.294;6.590;2023-06-14T14:09:48;1.90;;;1.63;;
8540;SDS011;4308;51.294;6.590;2023-06-14T14:12:16;3.07;;;1.83;;
8540;SDS011;4308;51.294;6.590;2023-06-14T14:14:45;4.50;;;2.10;;
8540;SDS011;4308;51.294;6.590;2023-06-14T14:17:13;3.60;;;2.07;;
8540;SDS011;4308;51.294;6.590;2023-06-14T14:19:41;3.20;;;2.07;;
8540;SDS011;4308;51.294;6.590;2023-06-14T14:22:08;3.83;;;1.83;;
8540;SDS011;4308;51.294;6.590;2023-06-14T14:24:36;3.03;;;1.93;;
8540;SDS011;4308;51.294;6.590;2023-06-14T14:27:04;5.40;;;2.60;;
8540;SDS011;4308;51.294;6.590;2023-06-14T14:29:31;3.93;;;2.37;;
8540;SDS011;4308;51.294;6.590;2023-06-14T14:31:59;2.57;;;2.37;;
8540;SDS011;4308;51.294;6.590;2023-06-14T14:34:27;2.17;;;1.90;;
8540;SDS011;4308;51.294;6.590;2023-06-14T14:36:55;10.17;;;2.20;;
8540;SDS011;4308;51.294;6.590;2023-06-14T14:39:22;2.13;;;1.90;;
8540;SDS011;4308;51.294;6.590;2023-06-14T14:41:50;3.20;;;2.03;;
8540;SDS011;4308;51.294;6.590;2023-06-14T14:44:18;3.90;;;2.10;;
8540;SDS011;4308;51.294;6.590;2023-06-14T14:46:45;4.67;;;2.00;;
8540;SDS011;4308;51.294;6.590;2023-06-14T14:49:13;2.20;;;2.00;;
8540;SDS011;4308;51.294;6.590;2023-06-14T14:51:40;3.73;;;2.20;;
8540;SDS011;4308;51.294;6.590;2023-06-14T14:54:08;2.67;;;2.00;;
8540;SDS011;4308;51.294;6.590;2023-06-14T14:56:36;3.53;;;2.20;;
8540;SDS011;4308;51.294;6.590;2023-06-14T14:59:03;3.00;;;2.30;;
8540;SDS011;4308;51.294;6.590;2023-06-14T15:01:31;5.33;;;2.10;;
8540;SDS011;4308;51.294;6.590;2023-06-14T15:03:59;4.80;;;2.30;;
8540;SDS011;4308;51.294;6.590;2023-06-14T15:06:27;4.60;;;2.00;;
8540;SDS011;4308;51.294;6.590;2023-06-14T15:08:54;3.73;;;1.87;;
8540;SDS011;4308;51.294;6.590;2023-06-14T15:11:22;2.90;;;2.37;;
8540;SDS011;4308;51.294;6.590;2023-06-14T15:13:49;3.70;;;1.97;;
8540;SDS011;4308;51.294;6.590;2023-06-14T15:16:17;3.17;;;2.30;;
8540;SDS011;4308;51.294;6.590;2023-06-14T15:18:45;3.50;;;2.03;;
8540;SDS011;4308;51.294;6.590;2023-06-14T15:21:12;2.70;;;2.47;;
8540;SDS011;4308;51.294;6.590;2023-06-14T15:23:40;5.57;;;2.20;;
8540;SDS011;4308;51.294;6.590;2023-06-14T15:26:08;6.73;;;2.40;;
8540;SDS011;4308;51.294;6.590;2023-06-14T15:28:35;2.50;;;2.20;;
8540;SDS011;4308;51.294;6.590;2023-06-14T15:31:03;4.73;;;2.73;;
8540;SDS011;4308;51.294;6.590;2023-06-14T15:33:31;3.73;;;2.17;;
8540;SDS011;4308;51.294;6.590;2023-06-14T15:35:58;2.73;;;2.00;;